createdAt,value
2022-12-08T00:00:43.069Z,100466.73
2022-12-08T00:03:11.729Z,100465.55
2022-12-08T00:06:05.066Z,100467.61
2022-12-08T00:08:53.455Z,100464.48
2022-12-08T00:11:23.221Z,100459.41
2022-12-08T00:13:51.620Z,100458.92
2022-12-08T00:16:20.074Z,100468.90
2022-12-08T00:18:48.449Z,100466.32
2022-12-08T00:21:16.945Z,100470.88
2022-12-08T00:23:45.303Z,100471.55
2022-12-08T00:26:13.898Z,100470.31
2022-12-08T00:28:42.274Z,100458.94
2022-12-08T00:31:12.284Z,100452.05
2022-12-08T00:33:42.198Z,100445.27
2022-12-08T00:36:14.184Z,100448.08
2022-12-08T00:38:44.886Z,100441.85
2022-12-08T00:41:16.952Z,100442.39
2022-12-08T00:43:44.980Z,100445.30
2022-12-08T00:46:12.382Z,100445.05
2022-12-08T00:48:40.706Z,100440.73
2022-12-08T00:51:09.025Z,100434.77
2022-12-08T00:53:37.416Z,100433.27
2022-12-08T00:56:06.122Z,100427.34
2022-12-08T00:58:34.387Z,100426.42
2022-12-08T01:01:09.621Z,100427.65
2022-12-08T01:03:40.604Z,100425.64
2022-12-08T01:06:11.603Z,100428.87
2022-12-08T01:08:42.450Z,100425.94
2022-12-08T01:11:17.393Z,100424.42
2022-12-08T01:13:47.367Z,100428.88
2022-12-08T01:16:30.173Z,100426.86
2022-12-08T01:19:00.958Z,100423.02
2022-12-08T01:21:30.885Z,100425.52
2022-12-08T01:24:02.521Z,100425.17
2022-12-08T01:26:32.321Z,100422.42
2022-12-08T01:29:02.035Z,100420.16
2022-12-08T01:31:31.798Z,100416.94
2022-12-08T01:34:01.571Z,100412.05
2022-12-08T01:36:36.926Z,100410.38
2022-12-08T01:39:14.424Z,100409.81
2022-12-08T01:41:46.655Z,100411.65
2022-12-08T01:44:16.221Z,100405.50
2022-12-08T01:46:49.456Z,100404.14
2022-12-08T01:49:35.175Z,100403.33
2022-12-08T01:52:34.194Z,100396.36
2022-12-08T01:55:29.456Z,100393.32
2022-12-08T01:58:11.422Z,100388.27
2022-12-08T02:00:41.667Z,100384.51
2022-12-08T02:03:20.087Z,100384.64
2022-12-08T02:05:49.027Z,100387.16
2022-12-08T02:08:17.555Z,100382.85
2022-12-08T02:10:49.538Z,100380.45
2022-12-08T02:13:23.270Z,100376.83
2022-12-08T02:16:31.470Z,100372.15
2022-12-08T02:19:53.281Z,100368.40
2022-12-08T02:22:34.141Z,100367.27
2022-12-08T02:25:24.558Z,100361.44
2022-12-08T02:28:40.290Z,100361.25
2022-12-08T02:32:03.295Z,100360.36
2022-12-08T02:35:05.650Z,100356.02
2022-12-08T02:37:50.210Z,100356.23
2022-12-08T02:40:28.073Z,100356.30
2022-12-08T02:43:07.282Z,100350.86
2022-12-08T02:45:47.591Z,100349.83
2022-12-08T02:48:17.970Z,100349.56
2022-12-08T02:50:47.729Z,100345.96
2022-12-08T02:53:17.503Z,100338.83
2022-12-08T02:56:16.232Z,100332.98
2022-12-08T02:59:33.575Z,100327.17
2022-12-08T03:02:17.966Z,100321.61
2022-12-08T03:05:13.687Z,100320.71
2022-12-08T03:08:24.552Z,100321.16
2022-12-08T03:11:08.502Z,100317.11
2022-12-08T03:13:50.264Z,100314.28
2022-12-08T03:16:29.362Z,100309.45
2022-12-08T03:19:15.674Z,100305.92
2022-12-08T03:21:51.768Z,100302.33
2022-12-08T03:24:23.419Z,100301.17
2022-12-08T03:27:03.706Z,100293.39
2022-12-08T03:29:34.290Z,100295.73
2022-12-08T03:32:47.834Z,100292.70
2022-12-08T03:35:25.913Z,100282.41
2022-12-08T03:38:10.793Z,100281.25
2022-12-08T03:40:41.349Z,100280.86
2022-12-08T03:43:09.192Z,100270.89
2022-12-08T03:45:37.426Z,100269.32
2022-12-08T03:48:06.301Z,100268.51
2022-12-08T03:50:34.149Z,100265.30
2022-12-08T03:53:02.683Z,100259.18
2022-12-08T03:55:30.996Z,100261.66
2022-12-08T03:57:59.376Z,100258.61
2022-12-08T04:00:27.964Z,100256.67
2022-12-08T04:02:56.220Z,100253.48
2022-12-08T04:05:24.651Z,100251.93
2022-12-08T04:07:57.844Z,100247.85
2022-12-08T04:10:27.697Z,100243.16
2022-12-08T04:12:57.657Z,100242.30
2022-12-08T04:15:27.390Z,100240.08
2022-12-08T04:17:57.096Z,100241.05
2022-12-08T04:20:26.821Z,100231.52
2022-12-08T04:22:56.537Z,100226.77
2022-12-08T04:25:26.450Z,100230.73
2022-12-08T04:27:56.427Z,100227.83
2022-12-08T04:30:26.225Z,100225.23
2022-12-08T04:32:56.076Z,100225.60
2022-12-08T04:35:25.938Z,100222.48
2022-12-08T04:37:56.013Z,100220.98
2022-12-08T04:40:25.959Z,100220.83
2022-12-08T04:42:55.773Z,100222.26
2022-12-08T04:45:25.681Z,100222.89
2022-12-08T04:47:55.894Z,100221.92
2022-12-08T04:50:25.865Z,100221.77
2022-12-08T04:52:55.611Z,100219.05
2022-12-08T04:55:25.586Z,100220.73
2022-12-08T04:57:55.313Z,100216.38
2022-12-08T05:00:25.048Z,100213.27
2022-12-08T05:02:54.935Z,100214.02
2022-12-08T05:05:24.856Z,100213.73
2022-12-08T05:07:54.687Z,100209.27
2022-12-08T05:10:24.456Z,100206.81
2022-12-08T05:12:54.306Z,100205.70
2022-12-08T05:15:24.044Z,100206.55
2022-12-08T05:17:54.350Z,100199.55
2022-12-08T05:20:24.180Z,100200.73
2022-12-08T05:22:52.599Z,100206.17
2022-12-08T05:25:21.033Z,100201.33
2022-12-08T05:27:49.522Z,100199.46
2022-12-08T05:30:18.036Z,100196.73
2022-12-08T05:32:46.303Z,100201.32
2022-12-08T05:35:14.788Z,100201.17
2022-12-08T05:37:43.199Z,100198.55
2022-12-08T05:40:11.722Z,100198.51
2022-12-08T05:42:40.007Z,100197.42
2022-12-08T05:45:09.570Z,100199.31
2022-12-08T05:47:36.770Z,100198.55
2022-12-08T05:50:07.118Z,100195.11
2022-12-08T05:52:37.073Z,100194.98
2022-12-08T05:55:05.999Z,100194.25
2022-12-08T05:57:33.507Z,100191.95
2022-12-08T06:00:02.847Z,100189.98
2022-12-08T06:02:30.602Z,100189.80
2022-12-08T06:04:58.820Z,100189.55
2022-12-08T06:07:27.252Z,100193.57
2022-12-08T06:09:55.692Z,100197.06
2022-12-08T06:12:24.961Z,100195.36
2022-12-08T06:14:52.663Z,100192.64
2022-12-08T06:17:21.116Z,100191.48
2022-12-08T06:19:49.513Z,100197.17
2022-12-08T06:22:17.912Z,100196.79
2022-12-08T06:24:46.588Z,100194.92
2022-12-08T06:27:14.853Z,100185.68
2022-12-08T06:29:43.200Z,100185.29
2022-12-08T06:32:13.045Z,100188.29
2022-12-08T06:34:42.870Z,100189.63
2022-12-08T06:37:12.796Z,100194.28
2022-12-08T06:39:42.709Z,100189.70
2022-12-08T06:42:33.243Z,100185.77
2022-12-08T06:45:03.914Z,100191.88
2022-12-08T06:47:34.162Z,100191.70
2022-12-08T06:50:07.004Z,100190.67
2022-12-08T06:52:45.307Z,100193.71
2022-12-08T06:55:42.689Z,100192.70
2022-12-08T06:58:09.064Z,100191.23
2022-12-08T07:00:41.197Z,100199.70
2022-12-08T07:03:13.093Z,100199.27
2022-12-08T07:05:42.828Z,100203.41
2022-12-08T07:08:12.730Z,100208.25
2022-12-08T07:10:42.635Z,100212.75
2022-12-08T07:13:12.430Z,100212.65
2022-12-08T07:15:40.853Z,100215.42
2022-12-08T07:18:09.317Z,100218.42
2022-12-08T07:20:38.098Z,100218.54
2022-12-08T07:23:06.102Z,100217.02
2022-12-08T07:25:34.493Z,100220.14
2022-12-08T07:28:08.990Z,100221.83
2022-12-08T07:30:39.517Z,100220.17
2022-12-08T07:33:09.430Z,100223.91
2022-12-08T07:35:39.188Z,100223.72
2022-12-08T07:38:11.071Z,100226.34
2022-12-08T07:40:40.805Z,100224.77
2022-12-08T07:43:10.589Z,100223.86
2022-12-08T07:45:41.942Z,100223.66
2022-12-08T07:48:12.176Z,100217.57
2022-12-08T07:50:42.983Z,100211.19
2022-12-08T07:53:12.931Z,100209.07
2022-12-08T07:55:44.542Z,100207.64
2022-12-08T07:58:14.267Z,100207.20
2022-12-08T08:00:44.147Z,100208.88
2022-12-08T08:03:14.073Z,100214.67
2022-12-08T08:05:49.250Z,100216.03
2022-12-08T08:08:19.504Z,100218.72
2022-12-08T08:10:49.336Z,100221.96
2022-12-08T08:13:19.498Z,100216.47
2022-12-08T08:15:49.368Z,100220.23
2022-12-08T08:18:19.416Z,100220.90
2022-12-08T08:20:49.870Z,100224.20
2022-12-08T08:23:19.636Z,100222.19
2022-12-08T08:25:49.473Z,100223.27
2022-12-08T08:28:17.937Z,100225.05
2022-12-08T08:30:47.536Z,100222.48
2022-12-08T08:33:15.091Z,100218.80
2022-12-08T08:35:43.439Z,100220.73
2022-12-08T08:38:11.501Z,100218.33
2022-12-08T08:40:39.926Z,100216.08
2022-12-08T08:43:09.311Z,100218.40
2022-12-08T08:45:36.803Z,100218.06
2022-12-08T08:48:05.868Z,100223.45
2022-12-08T08:50:37.585Z,100221.92
2022-12-08T08:53:05.115Z,100224.20
2022-12-08T08:55:33.467Z,100217.87
2022-12-08T08:58:01.994Z,100219.27
2022-12-08T09:00:30.366Z,100223.02
2022-12-08T09:02:58.888Z,100218.58
2022-12-08T09:05:27.243Z,100222.05
2022-12-08T09:07:55.718Z,100215.88
2022-12-08T09:10:24.170Z,100211.94
2022-12-08T09:12:52.492Z,100211.13
2022-12-08T09:15:21.075Z,100206.48
2022-12-08T09:17:49.400Z,100205.35
2022-12-08T09:20:17.882Z,100199.12
2022-12-08T09:22:46.225Z,100198.71
2022-12-08T09:25:14.605Z,100199.11
2022-12-08T09:27:43.021Z,100196.15
2022-12-08T09:30:11.600Z,100194.32
2022-12-08T09:32:39.851Z,100189.69
2022-12-08T09:35:08.724Z,100189.44
2022-12-08T09:37:36.719Z,100187.73
2022-12-08T09:40:07.942Z,100189.78
2022-12-08T09:43:51.660Z,100186.41
2022-12-08T09:46:22.287Z,100186.42
2022-12-08T09:48:57.122Z,100186.61
2022-12-08T09:51:38.044Z,100186.90
2022-12-08T09:54:25.107Z,100182.81
2022-12-08T09:57:01.180Z,100180.23
2022-12-08T09:59:34.658Z,100180.77
2022-12-08T10:02:23.569Z,100182.11
2022-12-08T10:04:56.744Z,100177.45
2022-12-08T10:07:49.255Z,100174.48
2022-12-08T10:10:42.045Z,100174.38
2022-12-08T10:13:32.567Z,100178.89
2022-12-08T10:16:29.981Z,100171.73
2022-12-08T10:19:22.717Z,100173.17
2022-12-08T10:21:56.535Z,100172.30
2022-12-08T10:24:37.364Z,100170.02
2022-12-08T10:27:12.657Z,100169.06
2022-12-08T10:29:41.330Z,100166.74
2022-12-08T10:32:23.805Z,100165.98
2022-12-08T10:35:16.142Z,100160.58
2022-12-08T10:37:58.724Z,100160.11
2022-12-08T10:40:40.505Z,100153.91
2022-12-08T10:43:19.195Z,100153.84
2022-12-08T10:45:49.257Z,100158.55
2022-12-08T10:48:28.773Z,100156.90
2022-12-08T10:51:00.296Z,100155.24
2022-12-08T10:53:33.832Z,100149.52
2022-12-08T10:56:03.467Z,100148.03
2022-12-08T10:58:41.108Z,100146.31
2022-12-08T11:01:39.260Z,100145.95
2022-12-08T11:04:18.425Z,100140.11
2022-12-08T11:06:51.054Z,100137.66
2022-12-08T11:09:19.125Z,100137.79
2022-12-08T11:11:59.086Z,100134.62
2022-12-08T11:14:55.000Z,100132.55
2022-12-08T11:17:38.200Z,100129.69
2022-12-08T11:20:10.924Z,100127.66
2022-12-08T11:22:43.978Z,100120.75
2022-12-08T11:25:28.216Z,100114.55
2022-12-08T11:28:01.609Z,100111.42
2022-12-08T11:30:48.641Z,100109.86
2022-12-08T11:33:21.952Z,100109.70
2022-12-08T11:35:59.244Z,100105.31
2022-12-08T11:38:30.121Z,100105.88
2022-12-08T11:41:16.183Z,100110.87
2022-12-08T11:44:33.017Z,100108.59
2022-12-08T11:47:20.682Z,100109.37
2022-12-08T11:49:59.114Z,100113.40
2022-12-08T11:52:45.198Z,100113.80
2022-12-08T11:55:55.379Z,100118.90
2022-12-08T11:58:43.815Z,100121.05
2022-12-08T12:01:23.672Z,100125.09
2022-12-08T12:04:14.643Z,100122.48
2022-12-08T12:07:12.254Z,100123.20
2022-12-08T12:10:02.451Z,100119.89
2022-12-08T12:13:11.903Z,100128.88
2022-12-08T12:16:28.339Z,100120.92
2022-12-08T12:19:04.746Z,100120.26
2022-12-08T12:21:39.661Z,100119.56
2022-12-08T12:24:37.750Z,100123.09
2022-12-08T12:27:29.990Z,100123.88
2022-12-08T12:30:09.900Z,100119.25
2022-12-08T12:32:46.940Z,100118.54
2022-12-08T12:35:44.277Z,100117.29
2022-12-08T12:38:41.815Z,100119.42
2022-12-08T12:41:15.038Z,100115.84
2022-12-08T12:44:23.871Z,100112.17
2022-12-08T12:46:52.988Z,100105.88
2022-12-08T12:50:07.955Z,100108.64
2022-12-08T12:52:39.515Z,100112.92
2022-12-08T12:55:09.615Z,100114.44
2022-12-08T12:58:03.422Z,100111.23
2022-12-08T13:00:33.042Z,100110.34
2022-12-08T13:03:01.665Z,100114.45
2022-12-08T13:05:50.256Z,100114.54
2022-12-08T13:08:26.011Z,100114.15
2022-12-08T13:11:09.897Z,100111.17
2022-12-08T13:14:05.260Z,100107.47
2022-12-08T13:16:39.468Z,100103.39
2022-12-08T13:19:16.348Z,100106.80
2022-12-08T13:21:46.189Z,100106.70
2022-12-08T13:24:24.873Z,100102.58
2022-12-08T13:27:03.938Z,100101.73
2022-12-08T13:29:36.087Z,100104.23
2022-12-08T13:32:09.589Z,100104.20
2022-12-08T13:34:55.512Z,100101.13
2022-12-08T13:37:32.578Z,100104.38
2022-12-08T13:40:14.453Z,100107.04
2022-12-08T13:42:56.492Z,100107.21
2022-12-08T13:46:12.230Z,100102.46
2022-12-08T13:49:41.924Z,100101.17
2022-12-08T13:57:30.354Z,100107.14
2022-12-08T14:00:16.758Z,100103.64
2022-12-08T14:02:56.030Z,100105.75
2022-12-08T14:06:10.454Z,100108.61
2022-12-08T14:11:34.190Z,100103.26
2022-12-08T14:15:00.408Z,100102.73
2022-12-08T14:17:23.178Z,100107.10
2022-12-08T14:20:18.979Z,100107.20
2022-12-08T14:22:50.385Z,100106.77
2022-12-08T14:25:23.186Z,100107.34
2022-12-08T14:28:01.127Z,100110.23
2022-12-08T14:30:36.164Z,100110.94
2022-12-08T14:33:05.308Z,100110.29
2022-12-08T14:35:38.348Z,100114.02
2022-12-08T14:38:14.766Z,100116.59
2022-12-08T14:41:09.115Z,100114.88
2022-12-08T14:43:40.963Z,100132.69
2022-12-08T14:46:23.278Z,100143.48
2022-12-08T14:48:50.837Z,100139.77
2022-12-08T14:51:19.147Z,100142.23
2022-12-08T14:54:15.450Z,100145.22
2022-12-08T14:56:57.360Z,100143.17
2022-12-08T14:59:38.090Z,100145.52
2022-12-08T15:02:26.407Z,100140.09
2022-12-08T15:05:10.447Z,100140.22
2022-12-08T15:07:43.005Z,100141.77
2022-12-08T15:10:17.464Z,100140.09
2022-12-08T15:13:11.066Z,100141.62
2022-12-08T15:15:51.172Z,100144.36
2022-12-08T15:18:36.135Z,100144.11
2022-12-08T15:21:10.180Z,100146.84
2022-12-08T15:23:45.669Z,100147.58
2022-12-08T15:26:26.125Z,100149.32
2022-12-08T15:28:55.927Z,100145.52
2022-12-08T15:31:25.669Z,100150.23
2022-12-08T15:33:55.401Z,100152.72
2022-12-08T15:36:25.058Z,100153.00
2022-12-08T15:38:54.811Z,100155.99
2022-12-08T15:41:24.515Z,100155.77
2022-12-08T15:43:54.251Z,100160.98
2022-12-08T15:46:24.071Z,100161.00
2022-12-08T15:48:58.067Z,100162.52
2022-12-08T15:51:28.003Z,100168.42
2022-12-08T15:53:57.689Z,100165.29
2022-12-08T15:56:29.371Z,100166.48
2022-12-08T15:58:59.314Z,100166.25
2022-12-08T16:01:29.374Z,100164.05
2022-12-08T16:04:55.362Z,100168.05
2022-12-08T16:09:45.120Z,100166.90
2022-12-08T16:15:51.744Z,100161.95
2022-12-08T16:18:31.604Z,100165.25
2022-12-08T16:21:12.517Z,100164.89
2022-12-08T16:23:52.631Z,100170.09
2022-12-08T16:27:06.874Z,100173.75
2022-12-08T16:29:20.933Z,100180.23
2022-12-08T16:31:49.330Z,100180.39
2022-12-08T16:34:16.574Z,100184.08
2022-12-08T16:36:44.957Z,100187.38
2022-12-08T16:39:14.720Z,100189.95
2022-12-08T16:42:00.446Z,100190.83
2022-12-08T16:44:30.235Z,100199.91
2022-12-08T16:47:09.254Z,100196.15
2022-12-08T16:49:39.494Z,100193.85
2022-12-08T16:52:09.502Z,100194.31
2022-12-08T16:54:39.283Z,100195.98
2022-12-08T16:57:09.208Z,100194.94
2022-12-08T16:59:39.299Z,100191.80
2022-12-08T17:02:15.127Z,100193.88
2022-12-08T17:04:46.208Z,100203.23
2022-12-08T17:07:16.259Z,100202.41
2022-12-08T17:09:45.969Z,100204.80
2022-12-08T17:12:19.384Z,100208.77
2022-12-08T17:14:47.178Z,100203.90
2022-12-08T17:17:15.824Z,100209.94
2022-12-08T17:19:44.087Z,100209.73
2022-12-08T17:22:12.590Z,100210.80
2022-12-08T17:24:42.303Z,100211.52
2022-12-08T17:27:12.043Z,100214.40
2022-12-08T17:29:40.473Z,100209.27
2022-12-08T17:32:08.971Z,100213.87
2022-12-08T17:34:37.310Z,100217.96
2022-12-08T17:37:06.210Z,100216.31
2022-12-08T17:39:34.319Z,100214.46
2022-12-08T17:42:02.647Z,100211.17
2022-12-08T17:44:31.854Z,100210.46
2022-12-08T17:47:04.916Z,100210.73
2022-12-08T17:49:34.689Z,100209.55
2022-12-08T17:52:10.672Z,100210.23
2022-12-08T17:54:39.641Z,100213.09
2022-12-08T17:57:07.769Z,100220.48
2022-12-08T17:59:37.582Z,100222.95
2022-12-08T18:02:12.068Z,100221.42
2022-12-08T18:04:41.961Z,100223.63
2022-12-08T18:07:10.469Z,100223.88
2022-12-08T18:09:38.873Z,100222.85
2022-12-08T18:12:12.229Z,100223.06
2022-12-08T18:14:42.378Z,100225.08
2022-12-08T18:17:12.714Z,100224.06
2022-12-08T18:19:42.497Z,100223.89
2022-12-08T18:22:12.542Z,100223.79
2022-12-08T18:24:43.691Z,100226.61
2022-12-08T18:27:13.846Z,100228.06
2022-12-08T18:29:43.588Z,100230.64
2022-12-08T18:32:13.362Z,100228.10
2022-12-08T18:34:43.106Z,100231.67
2022-12-08T18:37:12.844Z,100236.27
2022-12-08T18:39:42.617Z,100235.60
2022-12-08T18:42:23.005Z,100232.80
2022-12-08T18:44:58.577Z,100235.70
2022-12-08T18:47:28.926Z,100234.45
2022-12-08T18:49:58.764Z,100235.59
2022-12-08T18:52:32.332Z,100245.35
2022-12-08T18:55:07.079Z,100245.34
2022-12-08T18:57:40.127Z,100249.36
2022-12-08T19:00:16.076Z,100245.36
2022-12-08T19:02:46.082Z,100249.36
2022-12-08T19:05:16.078Z,100250.30
2022-12-08T19:07:46.505Z,100251.05
2022-12-08T19:10:16.396Z,100252.97
2022-12-08T19:12:50.926Z,100258.52
2022-12-08T19:15:20.956Z,100254.23
2022-12-08T19:17:50.845Z,100257.02
2022-12-08T19:20:20.640Z,100262.67
2022-12-08T19:22:50.427Z,100266.48
2022-12-08T19:25:21.915Z,100271.66
2022-12-08T19:27:51.525Z,100269.50
2022-12-08T19:30:21.303Z,100269.70
2022-12-08T19:32:51.098Z,100273.19
2022-12-08T19:35:20.974Z,100273.11
2022-12-08T19:37:50.707Z,100275.66
2022-12-08T19:40:39.550Z,100277.05
2022-12-08T19:43:40.990Z,100283.00
2022-12-08T19:46:09.215Z,100282.91
2022-12-08T19:48:37.878Z,100287.91
2022-12-08T19:51:06.330Z,100293.52
2022-12-08T19:53:34.862Z,100293.69
2022-12-08T19:56:03.497Z,100297.23
2022-12-08T19:58:31.251Z,100300.24
2022-12-08T20:00:59.936Z,100300.23
2022-12-08T20:03:28.230Z,100301.23
2022-12-08T20:05:56.779Z,100306.80
2022-12-08T20:08:25.222Z,100305.48
2022-12-08T20:10:55.910Z,100306.98
2022-12-08T20:13:40.773Z,100299.13
2022-12-08T20:16:11.499Z,100298.30
2022-12-08T20:18:43.626Z,100300.44
2022-12-08T20:21:13.534Z,100301.44
2022-12-08T20:23:45.497Z,100300.22
2022-12-08T20:26:18.356Z,100299.34
2022-12-08T20:28:48.878Z,100300.84
2022-12-08T20:31:22.669Z,100296.83
2022-12-08T20:33:53.864Z,100296.23
2022-12-08T20:36:24.405Z,100298.09
2022-12-08T20:38:55.679Z,100301.81
2022-12-08T20:41:25.484Z,100306.04
2022-12-08T20:43:55.438Z,100315.60
2022-12-08T20:46:23.680Z,100316.52
2022-12-08T20:48:52.162Z,100320.01
2022-12-08T20:51:20.616Z,100320.74
2022-12-08T20:53:49.019Z,100317.80
2022-12-08T20:56:21.650Z,100322.92
2022-12-08T20:58:50.433Z,100321.91
2022-12-08T21:01:24.461Z,100325.31
2022-12-08T21:03:54.465Z,100322.98
2022-12-08T21:06:29.590Z,100324.19
2022-12-08T21:08:57.587Z,100329.09
2022-12-08T21:11:27.534Z,100325.16
2022-12-08T21:13:57.647Z,100330.33
2022-12-08T21:16:27.843Z,100327.97
2022-12-08T21:18:57.947Z,100330.96
2022-12-08T21:21:27.992Z,100335.72
2022-12-08T21:23:57.959Z,100336.98
2022-12-08T21:26:27.868Z,100340.88
2022-12-08T21:28:58.923Z,100339.88
2022-12-08T21:31:31.927Z,100346.73
2022-12-08T21:34:03.492Z,100347.55
2022-12-08T21:36:33.714Z,100349.04
2022-12-08T21:39:10.900Z,100355.07
2022-12-08T21:41:59.526Z,100351.56
2022-12-08T21:44:29.393Z,100349.34
2022-12-08T21:46:59.393Z,100354.66
2022-12-08T21:49:29.483Z,100353.02
2022-12-08T21:51:59.523Z,100350.93
2022-12-08T21:54:29.570Z,100350.23
2022-12-08T21:56:59.449Z,100351.44
2022-12-08T21:59:29.643Z,100352.19
2022-12-08T22:01:58.172Z,100352.27
2022-12-08T22:04:26.691Z,100350.50
2022-12-08T22:06:54.842Z,100349.41
2022-12-08T22:09:23.284Z,100356.36
2022-12-08T22:11:51.731Z,100359.35
2022-12-08T22:14:20.102Z,100364.13
2022-12-08T22:16:48.408Z,100364.83
2022-12-08T22:19:17.325Z,100363.15
2022-12-08T22:21:46.162Z,100355.69
2022-12-08T22:24:13.729Z,100349.55
2022-12-08T22:26:42.196Z,100352.27
2022-12-08T22:29:10.711Z,100349.02
2022-12-08T22:31:39.002Z,100348.16
2022-12-08T22:34:07.455Z,100352.77
2022-12-08T22:36:36.384Z,100362.98
2022-12-08T22:39:04.743Z,100365.02
2022-12-08T22:41:34.019Z,100365.91
2022-12-08T22:44:01.323Z,100365.33
2022-12-08T22:46:29.927Z,100364.19
2022-12-08T22:48:57.994Z,100367.15
2022-12-08T22:51:26.462Z,100368.10
2022-12-08T22:53:55.043Z,100370.67
2022-12-08T22:56:23.371Z,100377.17
2022-12-08T22:58:51.855Z,100377.59
2022-12-08T23:01:29.013Z,100375.67
2022-12-08T23:03:59.661Z,100376.02
2022-12-08T23:06:30.833Z,100374.95
2022-12-08T23:09:00.871Z,100373.23
2022-12-08T23:11:31.833Z,100365.67
2022-12-08T23:14:01.732Z,100368.34
2022-12-08T23:16:32.013Z,100364.45
2022-12-08T23:19:01.925Z,100361.17
2022-12-08T23:21:31.774Z,100361.45
2022-12-08T23:24:02.115Z,100357.19
2022-12-08T23:26:35.316Z,100354.40
2022-12-08T23:29:05.891Z,100354.08
2022-12-08T23:31:38.087Z,100354.55
2022-12-08T23:34:08.053Z,100353.86
2022-12-08T23:36:38.090Z,100352.39
2022-12-08T23:39:08.240Z,100350.02
2022-12-08T23:41:38.281Z,100354.80
2022-12-08T23:44:09.268Z,100359.93
2022-12-08T23:46:39.252Z,100358.79
2022-12-08T23:49:09.352Z,100358.80
2022-12-08T23:51:39.209Z,100354.58
2022-12-08T23:54:09.319Z,100357.64
2022-12-08T23:56:39.421Z,100353.45
2022-12-08T23:59:09.936Z,100354.38
